Mont Albert North, Australia

8:59 PM AEDT on January 22, 2018 (GMT +1100)
Mont Albert North | | Change Station

Elev 187 ft 37.80 °S, 145.11 °E | Updated 1 second ago

Clear
Clear
69.6 °F
Feels Like 69.6 °F
N
0.2
Wind Variable Wind from ESE
Gusts 2.5 mph

Today
High -- | Low -- °F
--% Chance of Precip.
Yesterday
High -- | Low -- °F
Precip. -- in
Pressure 29.83 in
Visibility 6.2 miles
Clouds Few 2400 ft
Scattered Clouds 12000 ft
Dew Point 60 °F
Humidity 71%
Rainfall 0.00 in
Snow Depth Not available.
6:21 AM 8:40 PM
Waxing Crescent, 25% visible
METAR YMML 220930Z 19010KT 9999 FEW024 SCT120 19/14 Q1010 FM1000 18010KT 9999 HZ BKN020
Pressure 29.83 in
Visibility 6.2 miles
Clouds Few 2400 ft
Scattered Clouds 12000 ft
Dew Point 60 °F
Humidity 71%
Rainfall 0.00 in
Snow Depth Not available.
6:21 AM 8:40 PM
Waxing Crescent, 25% visible
METAR YMML 220930Z 19010KT 9999 FEW024 SCT120 19/14 Q1010 FM1000 18010KT 9999 HZ BKN020

Get Severe Weather Alerts

Thanks for signing up!

Be on the lookout for a verification email in your inbox.

You'll start receiving the daily forecast at 6 AM.

×

10-Day Weather Forecast

×

Almanac

Astronomy

Jan. 22, 2018 Rise Set
Actual Time
Civil Twilight
Nautical Twilight
Astronomical Twilight
Moon
Length of Visible Light
Length of Day
Tomorrow will be .
, % of the Moon is Illuminated

Today's Extremes

Country Highs Country Lows

Community

WunderPhotos

Category 6

Welcome to Category 6. This is the collective home for Weather Underground's featured writeups by Dr. Jeff Masters (right), Bob Henson (left), Chris Burt, and other regular contributors.

Nearby

Air Quality

  Air Quality AQ Index Pollutant
Not available.

Snow Depth

Station Depth Elevation

Earthquake Activity

City Distance Mag. Time & Date
Minimum magnitude displayed is 2.5.

Coastal Water Temperatures

Place Temperature

Stations

Nearby Weather Stations

Station Location Temp. Windchill Dew Point Humidity Wind Precip. Elev Updated Type